Time;durP1;ratioP1;P1;durP2;ratioP2;P2;SDS_P1;SDS_P2;PMS_P1;PMS_P2;Temp;Humidity;BMP_temperature;BMP_pressure;BME280_temperature;BME280_humidity;BME280_pressure;Samples;Min_cycle;Max_cycle;Signal;HPM_P1;HPM_P2
2023/03/30 00:00:22;;;;;;;8.27;2.47;;;;;;;;;;4986860;28;20034;-62
2023/03/30 00:02:52;;;;;;;7.53;2.17;;;;;;;;;;4986193;28;20045;-63
2023/03/30 00:05:19;;;;;;;6.38;2.35;;;;;;;;;;4984887;28;20410;-63
2023/03/30 00:07:47;;;;;;;7.65;2.50;;;;;;;;;;4986015;28;20053;-63
2023/03/30 00:10:16;;;;;;;8.27;2.13;;;;;;;;;;4987263;28;20049;-64
2023/03/30 00:12:45;;;;;;;7.72;2.38;;;;;;;;;;4985412;28;20116;-65
2023/03/30 00:15:14;;;;;;;5.28;2.17;;;;;;;;;;4987653;28;20034;-62
2023/03/30 00:17:41;;;;;;;5.05;2.03;;;;;;;;;;4985594;28;21035;-64
2023/03/30 00:20:10;;;;;;;4.60;2.10;;;;;;;;;;4976791;28;20796;-63
2023/03/30 00:22:44;;;;;;;8.07;2.25;;;;;;;;;;4985326;28;20038;-62
2023/03/30 00:25:12;;;;;;;8.38;2.88;;;;;;;;;;4988670;28;20034;-63
2023/03/30 00:27:39;;;;;;;6.57;2.83;;;;;;;;;;4985681;28;20044;-65
2023/03/30 00:30:12;;;;;;;4.70;2.33;;;;;;;;;;4986377;28;20030;-65
2023/03/30 00:32:38;;;;;;;9.73;2.55;;;;;;;;;;4982837;28;20049;-65
2023/03/30 00:35:05;;;;;;;10.27;2.60;;;;;;;;;;4983896;28;20131;-65
2023/03/30 00:37:36;;;;;;;9.13;2.90;;;;;;;;;;4984549;28;20120;-65
2023/03/30 00:40:06;;;;;;;7.38;2.50;;;;;;;;;;4978329;28;20057;-64
2023/03/30 00:42:37;;;;;;;6.97;2.92;;;;;;;;;;4966963;28;20046;-63
2023/03/30 00:45:08;;;;;;;6.20;2.70;;;;;;;;;;4965999;28;20038;-67
2023/03/30 00:47:40;;;;;;;6.90;2.50;;;;;;;;;;4971167;28;20042;-64
2023/03/30 00:50:07;;;;;;;6.13;2.20;;;;;;;;;;4964980;28;20308;-65
2023/03/30 00:52:36;;;;;;;4.65;2.40;;;;;;;;;;4964673;28;20048;-64
2023/03/30 00:55:04;;;;;;;4.45;2.25;;;;;;;;;;4966954;28;20642;-64
2023/03/30 00:57:32;;;;;;;8.05;2.53;;;;;;;;;;4966021;28;20886;-65
2023/03/30 00:59:59;;;;;;;8.55;1.95;;;;;;;;;;4969122;28;20575;-62
2023/03/30 01:02:29;;;;;;;5.63;2.42;;;;;;;;;;4962384;28;20043;-64
2023/03/30 01:04:56;;;;;;;10.13;2.58;;;;;;;;;;4972530;28;20109;-63
2023/03/30 01:07:23;;;;;;;5.60;2.03;;;;;;;;;;4966238;28;20387;-65
2023/03/30 01:09:51;;;;;;;6.85;2.60;;;;;;;;;;4966575;28;20053;-62
2023/03/30 01:12:19;;;;;;;5.57;2.20;;;;;;;;;;4973069;28;20039;-63
2023/03/30 01:14:47;;;;;;;8.40;2.50;;;;;;;;;;4966235;28;20039;-64
2023/03/30 01:17:19;;;;;;;7.13;2.60;;;;;;;;;;4962879;28;20238;-62
2023/03/30 01:19:47;;;;;;;12.57;5.95;;;;;;;;;;4965155;28;20042;-66
2023/03/30 01:22:33;;;;;;;6.18;2.78;;;;;;;;;;4979261;28;20043;-65
2023/03/30 01:25:20;;;;;;;9.02;2.28;;;;;;;;;;4964115;28;22464;-65
2023/03/30 01:28:09;;;;;;;6.40;3.00;;;;;;;;;;4964100;28;20043;-63
2023/03/30 01:30:51;;;;;;;8.05;2.75;;;;;;;;;;4962147;28;20748;-65
2023/03/30 01:33:34;;;;;;;8.38;2.55;;;;;;;;;;4963126;28;20077;-64
2023/03/30 01:36:10;;;;;;;10.05;2.13;;;;;;;;;;4964067;28;20038;-63
2023/03/30 01:38:55;;;;;;;9.10;2.20;;;;;;;;;;4962348;28;20537;-64
2023/03/30 01:41:33;;;;;;;10.80;2.55;;;;;;;;;;4983298;28;20053;-62
2023/03/30 01:44:23;;;;;;;10.48;3.00;;;;;;;;;;4984048;28;20530;-63
2023/03/30 01:46:55;;;;;;;7.85;2.67;;;;;;;;;;4949249;28;21068;-62
2023/03/30 01:49:30;;;;;;;18.25;3.08;;;;;;;;;;4985128;28;20046;-63
2023/03/30 01:51:57;;;;;;;7.20;3.00;;;;;;;;;;4985169;28;20390;-62
2023/03/30 01:54:25;;;;;;;12.60;3.13;;;;;;;;;;4981880;28;20177;-65
2023/03/30 01:56:54;;;;;;;12.50;3.22;;;;;;;;;;4983434;28;20069;-65
2023/03/30 01:59:27;;;;;;;12.95;4.28;;;;;;;;;;4984164;28;20125;-64
2023/03/30 02:01:59;;;;;;;11.80;3.75;;;;;;;;;;4967563;28;20395;-64
2023/03/30 02:04:26;;;;;;;8.73;3.08;;;;;;;;;;4984268;28;20042;-65
2023/03/30 02:06:55;;;;;;;7.55;3.05;;;;;;;;;;4983768;28;20049;-63
2023/03/30 02:09:22;;;;;;;6.10;2.70;;;;;;;;;;4984369;28;21119;-65
2023/03/30 02:11:52;;;;;;;12.70;3.15;;;;;;;;;;4983802;28;20061;-64
2023/03/30 02:14:20;;;;;;;8.63;2.85;;;;;;;;;;4983755;28;20038;-65
2023/03/30 02:16:48;;;;;;;8.38;2.50;;;;;;;;;;4983102;28;20057;-64
2023/03/30 02:19:15;;;;;;;8.73;2.70;;;;;;;;;;4984531;28;20053;-65
2023/03/30 02:21:43;;;;;;;8.20;2.72;;;;;;;;;;4985649;28;20157;-64
2023/03/30 02:24:16;;;;;;;8.05;3.08;;;;;;;;;;4983133;28;20050;-65
2023/03/30 02:26:46;;;;;;;8.05;2.85;;;;;;;;;;4984221;28;20085;-65
2023/03/30 02:29:13;;;;;;;12.05;3.40;;;;;;;;;;4968317;28;20049;-62
2023/03/30 02:31:40;;;;;;;8.70;2.80;;;;;;;;;;4982584;28;20046;-65
2023/03/30 02:34:26;;;;;;;7.03;2.78;;;;;;;;;;4982504;28;20096;-65
2023/03/30 02:37:25;;;;;;;16.67;3.45;;;;;;;;;;4956373;28;20618;-65
2023/03/30 02:40:01;;;;;;;10.38;3.30;;;;;;;;;;4956145;28;20054;-66
2023/03/30 02:42:45;;;;;;;11.48;3.17;;;;;;;;;;4954316;28;20058;-64
2023/03/30 02:45:12;;;;;;;;;;;;;;;;;;4957425;28;20070;-63
2023/03/30 02:47:57;;;;;;;14.50;3.53;;;;;;;;;;4954745;28;19922;-63
2023/03/30 02:50:42;;;;;;;9.13;3.22;;;;;;;;;;4954577;28;20046;-65
2023/03/30 02:53:13;;;;;;;37.35;5.60;;;;;;;;;;4955839;28;20487;-63
2023/03/30 02:55:59;;;;;;;19.92;3.33;;;;;;;;;;4954396;28;20058;-65
2023/03/30 02:58:29;;;;;;;23.88;4.03;;;;;;;;;;4939407;28;20113;-61
2023/03/30 03:01:02;;;;;;;10.50;3.10;;;;;;;;;;4957279;28;20061;-63
2023/03/30 03:03:32;;;;;;;16.10;3.80;;;;;;;;;;4953713;28;20047;-63
2023/03/30 03:06:01;;;;;;;13.07;3.60;;;;;;;;;;4954464;28;20043;-63
2023/03/30 03:08:33;;;;;;;10.05;3.15;;;;;;;;;;4955739;28;20077;-64
2023/03/30 03:11:00;;;;;;;8.40;3.22;;;;;;;;;;4956369;28;20035;-64
2023/03/30 03:13:26;;;;;;;12.32;2.88;;;;;;;;;;4957094;28;20264;-61
2023/03/30 03:15:55;;;;;;;14.63;3.40;;;;;;;;;;4987235;28;20049;-63
2023/03/30 03:18:22;;;;;;;12.60;3.60;;;;;;;;;;4985784;28;20133;-62
2023/03/30 03:20:50;;;;;;;14.25;3.00;;;;;;;;;;4988220;28;20557;-64
2023/03/30 03:23:16;;;;;;;9.10;2.97;;;;;;;;;;4987051;28;20084;-64
2023/03/30 03:25:43;;;;;;;7.18;3.10;;;;;;;;;;4987218;28;20519;-62
2023/03/30 03:28:10;;;;;;;10.85;3.55;;;;;;;;;;4988547;28;20499;-63
2023/03/30 03:30:37;;;;;;;16.27;3.72;;;;;;;;;;4987997;28;20514;-62
2023/03/30 03:33:03;;;;;;;8.20;3.72;;;;;;;;;;4985883;28;20047;-63
2023/03/30 03:35:30;;;;;;;8.23;3.28;;;;;;;;;;4987592;28;20125;-61
2023/03/30 03:37:57;;;;;;;12.50;4.00;;;;;;;;;;4987183;28;20048;-61
2023/03/30 03:40:23;;;;;;;10.18;3.80;;;;;;;;;;4985669;28;20193;-62
2023/03/30 03:42:50;;;;;;;15.27;4.03;;;;;;;;;;4985678;28;20034;-61
2023/03/30 03:45:17;;;;;;;8.20;3.97;;;;;;;;;;4973653;28;20082;-62
2023/03/30 03:47:43;;;;;;;12.27;3.97;;;;;;;;;;4986598;28;20088;-61
2023/03/30 03:50:10;;;;;;;11.88;4.38;;;;;;;;;;4988173;28;22297;-63
2023/03/30 03:52:37;;;;;;;17.27;5.60;;;;;;;;;;4975326;28;20049;-61
2023/03/30 03:55:05;;;;;;;12.63;4.63;;;;;;;;;;4987027;28;20072;-61
2023/03/30 03:57:31;;;;;;;8.60;4.50;;;;;;;;;;4985494;28;20137;-63
2023/03/30 03:59:58;;;;;;;11.50;4.70;;;;;;;;;;4987034;28;20121;-60
2023/03/30 04:02:25;;;;;;;9.40;5.22;;;;;;;;;;4984826;28;20057;-69
2023/03/30 04:04:52;;;;;;;11.32;5.68;;;;;;;;;;4986274;28;20056;-60
2023/03/30 04:07:20;;;;;;;13.65;5.60;;;;;;;;;;4988007;28;20164;-61
2023/03/30 04:09:47;;;;;;;9.10;5.35;;;;;;;;;;4986422;28;20050;-64
2023/03/30 04:12:13;;;;;;;15.23;5.63;;;;;;;;;;4985248;28;20375;-60
2023/03/30 04:14:40;;;;;;;16.40;6.70;;;;;;;;;;4986014;28;21190;-63
2023/03/30 04:17:06;;;;;;;13.70;6.40;;;;;;;;;;4985742;28;20085;-61
2023/03/30 04:20:01;;;;;;;15.30;6.43;;;;;;;;;;4984757;28;20099;-61
2023/03/30 04:22:32;;;;;;;11.30;6.07;;;;;;;;;;4984335;28;20039;-62
2023/03/30 04:25:05;;;;;;;12.75;6.20;;;;;;;;;;4986242;28;20068;-62
2023/03/30 04:27:32;;;;;;;;;;;;;;;;;;4986171;28;20046;-64
2023/03/30 04:30:00;;;;;;;12.75;5.75;;;;;;;;;;4986581;28;19928;-64
2023/03/30 04:32:33;;;;;;;12.80;6.53;;;;;;;;;;4985374;28;21737;-61
2023/03/30 04:35:04;;;;;;;14.07;6.53;;;;;;;;;;4985519;28;20059;-61
2023/03/30 04:37:31;;;;;;;15.68;7.35;;;;;;;;;;4983521;28;20056;-62
2023/03/30 04:39:58;;;;;;;14.70;7.35;;;;;;;;;;4966104;28;20046;-61
2023/03/30 04:42:36;;;;;;;15.32;7.43;;;;;;;;;;4983213;28;20049;-61
2023/03/30 04:45:03;;;;;;;16.02;6.70;;;;;;;;;;4986229;28;20038;-61
2023/03/30 04:47:30;;;;;;;17.50;7.10;;;;;;;;;;4984830;28;20064;-62
2023/03/30 04:49:57;;;;;;;17.85;8.40;;;;;;;;;;4985836;28;20046;-61
2023/03/30 04:52:23;;;;;;;13.75;7.30;;;;;;;;;;4983729;28;20494;-62
2023/03/30 04:54:50;;;;;;;16.10;7.15;;;;;;;;;;4971016;28;20093;-62
2023/03/30 04:57:17;;;;;;;12.38;6.65;;;;;;;;;;4984926;28;20078;-63
2023/03/30 04:59:44;;;;;;;12.70;7.22;;;;;;;;;;4985472;28;20026;-62
2023/03/30 05:02:11;;;;;;;11.85;6.55;;;;;;;;;;4985067;28;20040;-63
2023/03/30 05:04:38;;;;;;;13.73;6.65;;;;;;;;;;4984787;28;20057;-63
2023/03/30 05:07:05;;;;;;;16.50;6.57;;;;;;;;;;4986953;28;21301;-63
2023/03/30 05:09:32;;;;;;;13.35;6.55;;;;;;;;;;4984507;28;20125;-64
2023/03/30 05:11:59;;;;;;;13.77;6.55;;;;;;;;;;4984903;28;20070;-64
2023/03/30 05:14:26;;;;;;;14.10;6.45;;;;;;;;;;4985029;28;20499;-63
2023/03/30 05:16:52;;;;;;;14.25;7.18;;;;;;;;;;4984271;28;20494;-62
2023/03/30 05:19:19;;;;;;;12.32;6.63;;;;;;;;;;4983837;28;20441;-61
2023/03/30 05:21:46;;;;;;;11.88;6.43;;;;;;;;;;4971721;28;20046;-63
2023/03/30 05:24:13;;;;;;;14.63;7.55;;;;;;;;;;4985241;28;20340;-63
2023/03/30 05:26:40;;;;;;;16.15;8.20;;;;;;;;;;4985466;28;20350;-62
2023/03/30 05:29:07;;;;;;;22.27;7.93;;;;;;;;;;4984693;28;20499;-63
2023/03/30 05:31:34;;;;;;;14.18;7.70;;;;;;;;;;4984684;28;20042;-63
2023/03/30 05:34:00;;;;;;;15.80;8.10;;;;;;;;;;4983107;28;20704;-62
2023/03/30 05:36:27;;;;;;;18.30;8.15;;;;;;;;;;4984082;28;20045;-62
2023/03/30 05:38:54;;;;;;;14.73;8.45;;;;;;;;;;4984618;28;20069;-62
2023/03/30 05:41:21;;;;;;;18.90;8.88;;;;;;;;;;4983427;28;20057;-63
2023/03/30 05:43:48;;;;;;;21.77;9.50;;;;;;;;;;4984284;28;20038;-62
2023/03/30 05:46:14;;;;;;;18.15;8.30;;;;;;;;;;4982025;28;20133;-63
2023/03/30 05:48:41;;;;;;;19.00;9.43;;;;;;;;;;4984821;28;20030;-63
2023/03/30 05:51:08;;;;;;;21.05;9.20;;;;;;;;;;4984853;28;20096;-62
2023/03/30 05:53:35;;;;;;;23.33;9.05;;;;;;;;;;4983886;28;20126;-63
2023/03/30 05:56:01;;;;;;;15.70;8.88;;;;;;;;;;4984125;28;20181;-62
2023/03/30 05:58:28;;;;;;;16.52;9.05;;;;;;;;;;4984609;28;20054;-62
2023/03/30 06:00:57;;;;;;;19.55;9.85;;;;;;;;;;4984806;28;20045;-62
2023/03/30 06:03:24;;;;;;;18.80;8.95;;;;;;;;;;4983748;28;20050;-64
2023/03/30 06:05:52;;;;;;;14.63;8.20;;;;;;;;;;4985525;28;20463;-63
2023/03/30 06:08:19;;;;;;;16.80;9.38;;;;;;;;;;4983663;28;20490;-64
2023/03/30 06:10:55;;;;;;;16.45;8.85;;;;;;;;;;4984102;28;20065;-63
2023/03/30 06:13:22;;;;;;;17.08;8.50;;;;;;;;;;4982319;28;20037;-63
2023/03/30 06:15:49;;;;;;;14.98;8.50;;;;;;;;;;4984328;28;20091;-64
2023/03/30 06:18:15;;;;;;;18.52;8.35;;;;;;;;;;4985204;28;20072;-60
2023/03/30 06:20:42;;;;;;;18.33;9.13;;;;;;;;;;4983943;28;20104;-64
2023/03/30 06:23:08;;;;;;;17.65;8.95;;;;;;;;;;4985142;28;20038;-64
2023/03/30 06:25:35;;;;;;;17.13;9.27;;;;;;;;;;4985308;28;20081;-65
2023/03/30 06:28:03;;;;;;;15.95;8.85;;;;;;;;;;4984729;28;20191;-62
2023/03/30 06:30:29;;;;;;;21.05;9.75;;;;;;;;;;4984059;28;20112;-64
2023/03/30 06:32:56;;;;;;;20.10;9.65;;;;;;;;;;4982901;28;20141;-61
2023/03/30 06:35:23;;;;;;;20.63;8.80;;;;;;;;;;4983520;28;20093;-62
2023/03/30 06:37:49;;;;;;;19.83;8.98;;;;;;;;;;4983579;28;20156;-64
2023/03/30 06:40:17;;;;;;;18.88;9.07;;;;;;;;;;4983771;28;20185;-62
2023/03/30 06:42:44;;;;;;;16.92;8.48;;;;;;;;;;4982463;28;20046;-64
2023/03/30 06:45:11;;;;;;;15.32;8.75;;;;;;;;;;4984352;28;20091;-62
2023/03/30 06:47:38;;;;;;;15.65;8.48;;;;;;;;;;4986544;28;20054;-63
2023/03/30 06:50:05;;;;;;;18.25;8.88;;;;;;;;;;4987262;28;20092;-61
2023/03/30 06:52:34;;;;;;;18.55;8.50;;;;;;;;;;4985658;28;20042;-62
2023/03/30 06:55:01;;;;;;;17.95;8.57;;;;;;;;;;4986744;28;20152;-62
2023/03/30 06:57:28;;;;;;;17.30;8.48;;;;;;;;;;4985846;28;20435;-62
2023/03/30 06:59:54;;;;;;;17.55;8.88;;;;;;;;;;4986253;28;20108;-62
2023/03/30 07:02:25;;;;;;;19.52;8.93;;;;;;;;;;4987247;28;20435;-64
2023/03/30 07:04:52;;;;;;;20.55;9.07;;;;;;;;;;4987832;28;20038;-65
2023/03/30 07:07:18;;;;;;;20.95;9.75;;;;;;;;;;4987865;28;20395;-62
2023/03/30 07:09:45;;;;;;;23.15;9.45;;;;;;;;;;4987883;28;20046;-63
2023/03/30 07:12:11;;;;;;;17.17;9.05;;;;;;;;;;4987639;28;20049;-63
2023/03/30 07:14:38;;;;;;;18.67;9.25;;;;;;;;;;4986275;28;20045;-61
2023/03/30 07:17:06;;;;;;;19.33;9.05;;;;;;;;;;4988792;28;20057;-60
2023/03/30 07:19:33;;;;;;;17.52;8.32;;;;;;;;;;4985845;28;20052;-63
2023/03/30 07:22:03;;;;;;;18.42;9.95;;;;;;;;;;4987663;28;20042;-60
2023/03/30 07:24:30;;;;;;;21.85;9.75;;;;;;;;;;4977974;28;20043;-63
2023/03/30 07:26:58;;;;;;;19.77;9.93;;;;;;;;;;4982046;28;20530;-61
2023/03/30 07:29:27;;;;;;;16.25;9.13;;;;;;;;;;4965178;28;20033;-63
2023/03/30 07:31:57;;;;;;;19.67;10.07;;;;;;;;;;4986150;28;20085;-59
2023/03/30 07:34:24;;;;;;;19.17;10.13;;;;;;;;;;4985560;28;20049;-61
2023/03/30 07:36:50;;;;;;;22.25;9.93;;;;;;;;;;4987135;28;20053;-60
2023/03/30 07:39:17;;;;;;;22.63;10.25;;;;;;;;;;4986742;28;20046;-62
2023/03/30 07:41:44;;;;;;;19.38;9.75;;;;;;;;;;4985360;28;20042;-60
2023/03/30 07:44:10;;;;;;;22.67;10.35;;;;;;;;;;4988089;28;20049;-62
2023/03/30 07:46:37;;;;;;;20.25;9.30;;;;;;;;;;4986597;28;20797;-62
2023/03/30 07:49:04;;;;;;;21.58;10.82;;;;;;;;;;4986363;28;20038;-61
2023/03/30 07:51:32;;;;;;;37.03;11.23;;;;;;;;;;4985730;28;20042;-63
2023/03/30 07:53:59;;;;;;;28.20;10.05;;;;;;;;;;4987961;28;20042;-61
2023/03/30 07:56:25;;;;;;;22.63;10.55;;;;;;;;;;4985295;28;20112;-61
2023/03/30 07:58:52;;;;;;;21.92;10.00;;;;;;;;;;4986292;28;20129;-61
2023/03/30 08:01:20;;;;;;;21.92;10.18;;;;;;;;;;4986754;28;20042;-62
2023/03/30 08:03:48;;;;;;;20.95;10.65;;;;;;;;;;4972543;28;20643;-62
2023/03/30 08:06:14;;;;;;;24.23;10.48;;;;;;;;;;4986941;28;20415;-61
2023/03/30 08:08:42;;;;;;;28.00;9.50;;;;;;;;;;4986989;28;20043;-60
2023/03/30 08:11:10;;;;;;;24.35;10.93;;;;;;;;;;4987242;28;20053;-60
2023/03/30 08:13:36;;;;;;;22.10;9.93;;;;;;;;;;4986063;28;20042;-62
2023/03/30 08:16:03;;;;;;;23.88;10.88;;;;;;;;;;4986699;28;20038;-62
2023/03/30 08:18:30;;;;;;;24.42;10.77;;;;;;;;;;4985027;28;20104;-61
2023/03/30 08:20:57;;;;;;;23.48;10.25;;;;;;;;;;4986324;28;20040;-62
2023/03/30 08:23:23;;;;;;;20.30;9.60;;;;;;;;;;4985043;28;20046;-61
2023/03/30 08:25:51;;;;;;;24.02;10.25;;;;;;;;;;4985617;28;20049;-61
2023/03/30 08:28:21;;;;;;;23.92;11.93;;;;;;;;;;4986302;28;20085;-62
2023/03/30 08:30:48;;;;;;;20.17;9.82;;;;;;;;;;4985874;28;20066;-61
2023/03/30 08:33:15;;;;;;;19.88;10.23;;;;;;;;;;4986408;28;20045;-60
2023/03/30 08:35:46;;;;;;;27.73;9.70;;;;;;;;;;4985359;28;20038;-60
2023/03/30 08:38:16;;;;;;;18.45;9.23;;;;;;;;;;4986336;28;20053;-63
2023/03/30 08:40:47;;;;;;;21.30;9.68;;;;;;;;;;4985301;28;20069;-61
2023/03/30 08:43:23;;;;;;;22.55;10.63;;;;;;;;;;4986395;28;20135;-63
2023/03/30 08:45:51;;;;;;;21.23;10.45;;;;;;;;;;4986010;28;20060;-62
2023/03/30 08:48:20;;;;;;;25.05;10.15;;;;;;;;;;4986689;28;20087;-63
2023/03/30 08:51:06;;;;;;;22.92;10.43;;;;;;;;;;4985519;28;20053;-61
2023/03/30 08:53:34;;;;;;;29.70;10.73;;;;;;;;;;4986111;28;20967;-66
2023/03/30 08:56:19;;;;;;;21.17;9.98;;;;;;;;;;4986459;28;20046;-60
2023/03/30 08:59:04;;;;;;;20.08;10.52;;;;;;;;;;4985592;28;20088;-61
2023/03/30 09:01:45;;;;;;;18.70;9.45;;;;;;;;;;4974957;28;20150;-61
2023/03/30 09:04:12;;;;;;;21.55;9.48;;;;;;;;;;4985388;28;20127;-63
2023/03/30 09:06:53;;;;;;;17.80;10.13;;;;;;;;;;4986195;28;25391;-59
2023/03/30 09:09:24;;;;;;;18.02;10.32;;;;;;;;;;4985767;28;20065;-61
2023/03/30 09:11:59;;;;;;;25.40;11.50;;;;;;;;;;4985648;28;20122;-61
2023/03/30 09:14:30;;;;;;;22.90;11.05;;;;;;;;;;4988024;28;20810;-61
2023/03/30 09:17:06;;;;;;;19.08;10.18;;;;;;;;;;4985765;28;20133;-63
2023/03/30 09:19:43;;;;;;;22.25;10.35;;;;;;;;;;4986093;28;20501;-60
2023/03/30 09:22:13;;;;;;;22.25;10.35;;;;;;;;;;4979461;28;20050;-62
2023/03/30 09:24:40;;;;;;;21.48;9.52;;;;;;;;;;4983938;28;20066;-60
2023/03/30 09:27:12;;;;;;;22.90;11.15;;;;;;;;;;4985516;28;21046;-62
2023/03/30 09:29:50;;;;;;;18.73;10.00;;;;;;;;;;4984175;28;20409;-61
2023/03/30 09:32:20;;;;;;;18.45;9.90;;;;;;;;;;4984664;28;20033;-63
2023/03/30 09:34:53;;;;;;;21.98;10.15;;;;;;;;;;4985180;28;20042;-62
2023/03/30 09:37:21;;;;;;;22.00;11.02;;;;;;;;;;4984607;28;20058;-64
2023/03/30 09:39:49;;;;;;;22.17;9.90;;;;;;;;;;4984292;28;20091;-61
2023/03/30 09:42:28;;;;;;;20.17;11.05;;;;;;;;;;4984599;28;20300;-61
2023/03/30 09:45:04;;;;;;;27.13;11.38;;;;;;;;;;4985125;28;20100;-61
2023/03/30 09:47:37;;;;;;;18.10;10.25;;;;;;;;;;4986344;28;20048;-62
2023/03/30 09:50:06;;;;;;;24.10;11.07;;;;;;;;;;4985776;28;20322;-62
2023/03/30 09:52:39;;;;;;;21.17;10.75;;;;;;;;;;4984585;28;20046;-62
2023/03/30 09:55:25;;;;;;;21.17;10.80;;;;;;;;;;4985036;28;20092;-61
2023/03/30 09:57:52;;;;;;;21.42;10.75;;;;;;;;;;4983251;28;20119;-61
2023/03/30 10:00:28;;;;;;;23.13;10.95;;;;;;;;;;4985268;28;20061;-62
2023/03/30 10:02:56;;;;;;;26.13;11.32;;;;;;;;;;4983289;28;20052;-61
2023/03/30 10:05:22;;;;;;;24.77;12.48;;;;;;;;;;4984831;28;20337;-60
2023/03/30 10:07:53;;;;;;;22.33;12.15;;;;;;;;;;4985892;28;20073;-63
2023/03/30 10:10:26;;;;;;;25.58;12.20;;;;;;;;;;4973098;28;20044;-62
2023/03/30 10:13:01;;;;;;;18.52;9.02;;;;;;;;;;4984903;28;20502;-61
2023/03/30 10:15:31;;;;;;;27.48;11.90;;;;;;;;;;4984046;28;20053;-60
2023/03/30 10:18:07;;;;;;;27.73;12.70;;;;;;;;;;4985861;28;20391;-60
2023/03/30 10:20:37;;;;;;;25.27;12.40;;;;;;;;;;4985599;28;20590;-62
2023/03/30 10:23:16;;;;;;;24.75;12.90;;;;;;;;;;4988446;28;20088;-61
2023/03/30 10:25:45;;;;;;;30.90;14.00;;;;;;;;;;4988632;28;20636;-61
2023/03/30 10:28:20;;;;;;;26.77;12.00;;;;;;;;;;4978649;28;20111;-63
2023/03/30 10:30:55;;;;;;;21.55;11.90;;;;;;;;;;4987975;28;20057;-66
2023/03/30 10:33:22;;;;;;;30.60;12.57;;;;;;;;;;4987474;28;20185;-61
2023/03/30 10:35:52;;;;;;;25.80;11.40;;;;;;;;;;4987994;28;20055;-63
2023/03/30 10:38:20;;;;;;;24.80;12.15;;;;;;;;;;4988835;28;20097;-62
2023/03/30 10:40:47;;;;;;;27.33;13.07;;;;;;;;;;4988811;28;20046;-63
2023/03/30 10:43:15;;;;;;;26.23;12.00;;;;;;;;;;4987445;28;21742;-61
2023/03/30 10:45:46;;;;;;;16.85;8.88;;;;;;;;;;4987720;28;20049;-63
2023/03/30 10:48:20;;;;;;;18.10;8.82;;;;;;;;;;4988145;28;20037;-62
2023/03/30 10:50:46;;;;;;;;;;;;;;;;;;4987164;28;21550;-64
2023/03/30 10:53:31;;;;;;;24.55;11.38;;;;;;;;;;4988119;28;19921;-61
2023/03/30 10:56:16;;;;;;;21.85;11.32;;;;;;;;;;4987964;28;20049;-60
2023/03/30 10:58:58;;;;;;;26.85;12.68;;;;;;;;;;4986897;28;20122;-62
2023/03/30 11:01:48;;;;;;;29.92;13.23;;;;;;;;;;4987213;28;20120;-61
2023/03/30 11:04:47;;;;;;;29.92;13.35;;;;;;;;;;4974081;28;20049;-61
2023/03/30 11:07:22;;;;;;;29.50;11.65;;;;;;;;;;4955344;28;20038;-65
2023/03/30 11:09:53;;;;;;;37.33;14.63;;;;;;;;;;4987485;28;20074;-59
2023/03/30 11:12:21;;;;;;;24.27;12.60;;;;;;;;;;4987449;28;20062;-62
2023/03/30 11:15:02;;;;;;;27.98;14.10;;;;;;;;;;4987574;28;20089;-60
2023/03/30 11:17:55;;;;;;;26.92;13.38;;;;;;;;;;4974947;28;20078;-61
2023/03/30 11:20:26;;;;;;;27.30;13.40;;;;;;;;;;4974525;28;20069;-63
2023/03/30 11:23:16;;;;;;;27.95;12.75;;;;;;;;;;4951613;28;20534;-61
2023/03/30 11:25:55;;;;;;;32.40;13.10;;;;;;;;;;4974886;28;20052;-63
2023/03/30 11:28:49;;;;;;;34.65;12.90;;;;;;;;;;4974240;28;20407;-62
2023/03/30 11:31:18;;;;;;;27.92;13.40;;;;;;;;;;4971460;28;20038;-61
2023/03/30 11:33:53;;;;;;;27.08;13.98;;;;;;;;;;4973235;28;20034;-68
2023/03/30 11:36:34;;;;;;;24.88;13.75;;;;;;;;;;4973907;28;20586;-62
2023/03/30 11:39:06;;;;;;;27.73;14.50;;;;;;;;;;4974068;28;20455;-63
2023/03/30 11:41:42;;;;;;;25.35;11.85;;;;;;;;;;4972124;28;20638;-65
2023/03/30 11:44:09;;;;;;;31.73;15.77;;;;;;;;;;4972806;28;20127;-62
2023/03/30 11:46:48;;;;;;;29.92;15.48;;;;;;;;;;4972637;28;20156;-61
2023/03/30 11:49:15;;;;;;;66.32;6.13;;;;;;;;;;4981790;28;20042;-63
2023/03/30 11:51:41;;;;;;;284.15;26.05;;;;;;;;;;4984698;28;20092;-60
2023/03/30 11:54:17;;;;;;;199.93;18.20;;;;;;;;;;4987216;28;21440;-61
2023/03/30 11:56:46;;;;;;;53.30;7.47;;;;;;;;;;4986017;28;20735;-62
2023/03/30 11:59:32;;;;;;;146.38;17.90;;;;;;;;;;4990222;28;21767;-60
2023/03/30 12:01:59;;;;;;;146.48;14.35;;;;;;;;;;4989132;28;20136;-64
2023/03/30 12:04:31;;;;;;;87.75;8.07;;;;;;;;;;4989447;28;20180;-66
2023/03/30 12:06:59;;;;;;;208.10;23.70;;;;;;;;;;4989032;28;20375;-62
2023/03/30 12:09:28;;;;;;;218.02;23.10;;;;;;;;;;4989367;28;20041;-61
2023/03/30 12:12:24;;;;;;;127.53;19.40;;;;;;;;;;4970028;28;20054;-60
2023/03/30 12:14:53;;;;;;;150.57;19.75;;;;;;;;;;4969832;28;20115;-63
2023/03/30 12:17:29;;;;;;;125.88;22.23;;;;;;;;;;4969514;28;20661;-63
2023/03/30 12:20:18;;;;;;;227.82;25.92;;;;;;;;;;4971139;28;20053;-63
2023/03/30 12:22:51;;;;;;;135.20;21.08;;;;;;;;;;4952231;28;20088;-64
2023/03/30 12:25:24;;;;;;;203.30;24.58;;;;;;;;;;4971485;28;20042;-60
2023/03/30 12:28:10;;;;;;;219.80;19.50;;;;;;;;;;4970105;28;20062;-62
2023/03/30 12:30:57;;;;;;;198.52;20.38;;;;;;;;;;4967512;28;20042;-62
2023/03/30 12:33:27;;;;;;;121.40;14.88;;;;;;;;;;4963609;28;20062;-60
2023/03/30 12:35:56;;;;;;;181.35;22.20;;;;;;;;;;4964007;28;20137;-61
2023/03/30 12:38:26;;;;;;;104.50;18.83;;;;;;;;;;4963079;28;20046;-62
2023/03/30 12:40:55;;;;;;;186.45;21.90;;;;;;;;;;4963190;28;20160;-60
2023/03/30 12:43:31;;;;;;;253.85;25.75;;;;;;;;;;4974198;28;20104;-61
2023/03/30 12:46:07;;;;;;;210.70;21.63;;;;;;;;;;4984836;28;20046;-60
2023/03/30 12:48:43;;;;;;;140.55;17.48;;;;;;;;;;4986370;28;20038;-63
2023/03/30 12:51:35;;;;;;;125.95;13.57;;;;;;;;;;4985639;28;20050;-62
2023/03/30 12:54:07;;;;;;;148.65;18.45;;;;;;;;;;4985794;28;20042;-62
2023/03/30 12:56:37;;;;;;;127.65;18.27;;;;;;;;;;4986567;28;20597;-61
2023/03/30 12:59:27;;;;;;;106.05;17.88;;;;;;;;;;4986489;28;20129;-64
2023/03/30 13:02:00;;;;;;;107.68;18.35;;;;;;;;;;4985383;28;20056;-61
2023/03/30 13:04:36;;;;;;;122.97;17.40;;;;;;;;;;4987466;28;20038;-61
2023/03/30 13:07:03;;;;;;;159.95;20.95;;;;;;;;;;4985048;28;20038;-61
2023/03/30 13:09:32;;;;;;;184.13;21.60;;;;;;;;;;4984934;28;20045;-63
2023/03/30 13:11:59;;;;;;;113.18;18.98;;;;;;;;;;4986105;28;20044;-62
2023/03/30 13:14:27;;;;;;;139.57;16.00;;;;;;;;;;4984439;28;20405;-61
2023/03/30 13:16:53;;;;;;;93.07;14.32;;;;;;;;;;4985926;28;20038;-59
2023/03/30 13:19:22;;;;;;;98.88;15.23;;;;;;;;;;4984300;28;20506;-61
2023/03/30 13:21:54;;;;;;;61.38;11.15;;;;;;;;;;4984614;28;20129;-61
2023/03/30 13:24:25;;;;;;;68.65;13.50;;;;;;;;;;4984778;28;20038;-61
2023/03/30 13:26:52;;;;;;;91.05;14.38;;;;;;;;;;4985895;28;20038;-62
2023/03/30 13:29:21;;;;;;;139.10;15.85;;;;;;;;;;4984714;28;20049;-63
2023/03/30 13:32:00;;;;;;;100.15;16.33;;;;;;;;;;4983444;28;20088;-62
2023/03/30 13:34:45;;;;;;;157.63;21.17;;;;;;;;;;4980824;28;20042;-62
2023/03/30 13:37:31;;;;;;;158.88;15.98;;;;;;;;;;4985399;28;20057;-64
2023/03/30 13:40:30;;;;;;;76.18;12.85;;;;;;;;;;4985312;28;20060;-61
2023/03/30 13:43:00;;;;;;;73.20;15.32;;;;;;;;;;4952513;28;20056;-62
2023/03/30 13:45:26;;;;;;;134.60;19.33;;;;;;;;;;4986201;28;20037;-62
2023/03/30 13:48:08;;;;;;;139.85;21.55;;;;;;;;;;4984831;28;20034;-63
2023/03/30 13:50:35;;;;;;;124.35;18.33;;;;;;;;;;4985145;28;20113;-61
2023/03/30 13:53:03;;;;;;;96.32;13.52;;;;;;;;;;4985397;28;20111;-63
2023/03/30 13:55:30;;;;;;;155.48;18.05;;;;;;;;;;4985410;28;20061;-59
2023/03/30 13:58:00;;;;;;;149.73;19.85;;;;;;;;;;4985039;28;20049;-63
2023/03/30 14:00:30;;;;;;;105.25;12.50;;;;;;;;;;4985032;28;20042;-62
2023/03/30 14:02:57;;;;;;;94.15;13.77;;;;;;;;;;4986234;28;20026;-64
2023/03/30 14:05:26;;;;;;;122.95;18.25;;;;;;;;;;4982998;28;20118;-62
2023/03/30 14:07:56;;;;;;;86.63;17.42;;;;;;;;;;4986550;28;20081;-61
2023/03/30 14:10:24;;;;;;;68.57;17.13;;;;;;;;;;4984103;28;20550;-61
2023/03/30 14:12:55;;;;;;;147.20;20.20;;;;;;;;;;4970838;28;20043;-59
2023/03/30 14:15:23;;;;;;;120.82;18.50;;;;;;;;;;4984648;28;20038;-63
2023/03/30 14:17:51;;;;;;;107.28;17.55;;;;;;;;;;4984098;28;20144;-60
2023/03/30 14:20:22;;;;;;;142.25;20.08;;;;;;;;;;4983959;28;20038;-64
2023/03/30 14:22:50;;;;;;;109.35;18.95;;;;;;;;;;4983453;28;20058;-63
2023/03/30 14:25:22;;;;;;;110.57;19.23;;;;;;;;;;4984444;28;20053;-64
2023/03/30 14:27:49;;;;;;;153.98;20.55;;;;;;;;;;4983831;28;20682;-64
2023/03/30 14:30:21;;;;;;;85.97;19.45;;;;;;;;;;4984467;28;21675;-60
2023/03/30 14:33:04;;;;;;;103.18;21.15;;;;;;;;;;4983302;28;20041;-63
2023/03/30 14:35:30;;;;;;;71.22;16.83;;;;;;;;;;4984145;28;20034;-63
2023/03/30 14:37:57;;;;;;;84.60;16.73;;;;;;;;;;4975751;28;20113;-61
2023/03/30 14:40:24;;;;;;;94.97;17.95;;;;;;;;;;4983870;28;20145;-62
2023/03/30 14:42:51;;;;;;;49.72;15.48;;;;;;;;;;4983183;28;20061;-61
2023/03/30 14:45:18;;;;;;;46.08;17.23;;;;;;;;;;4984869;28;20053;-61
2023/03/30 14:47:50;;;;;;;42.38;17.08;;;;;;;;;;4984114;28;20224;-61